sensor_id;sensor_type;location;lat;lon;timestamp;P1;durP1;ratioP1;P2;durP2;ratioP2
55589;SDS011;41452;42.780;23.116;2023-05-10T00:01:42;5.32;;;2.70;;
55589;SDS011;41452;42.780;23.116;2023-05-10T00:04:07;4.88;;;3.30;;
55589;SDS011;41452;42.780;23.116;2023-05-10T00:06:32;5.63;;;3.47;;
55589;SDS011;41452;42.780;23.116;2023-05-10T00:08:58;5.32;;;3.30;;
55589;SDS011;41452;42.780;23.116;2023-05-10T00:11:23;5.75;;;3.33;;
55589;SDS011;41452;42.780;23.116;2023-05-10T00:13:49;7.53;;;3.80;;
55589;SDS011;41452;42.780;23.116;2023-05-10T00:16:14;6.75;;;3.72;;
55589;SDS011;41452;42.780;23.116;2023-05-10T00:18:40;7.38;;;4.15;;
55589;SDS011;41452;42.780;23.116;2023-05-10T00:21:05;7.22;;;3.90;;
55589;SDS011;41452;42.780;23.116;2023-05-10T00:23:31;6.95;;;4.30;;
55589;SDS011;41452;42.780;23.116;2023-05-10T00:25:57;7.95;;;4.35;;
55589;SDS011;41452;42.780;23.116;2023-05-10T00:28:22;9.30;;;4.28;;
55589;SDS011;41452;42.780;23.116;2023-05-10T00:30:48;7.57;;;4.60;;
55589;SDS011;41452;42.780;23.116;2023-05-10T00:33:13;8.52;;;5.13;;
55589;SDS011;41452;42.780;23.116;2023-05-10T00:35:39;7.82;;;5.13;;
55589;SDS011;41452;42.780;23.116;2023-05-10T00:38:04;9.05;;;5.18;;
55589;SDS011;41452;42.780;23.116;2023-05-10T00:40:30;9.00;;;5.72;;
55589;SDS011;41452;42.780;23.116;2023-05-10T00:42:55;13.27;;;6.10;;
55589;SDS011;41452;42.780;23.116;2023-05-10T00:45:22;8.55;;;5.53;;
55589;SDS011;41452;42.780;23.116;2023-05-10T00:47:48;9.43;;;6.03;;
55589;SDS011;41452;42.780;23.116;2023-05-10T00:50:14;8.95;;;5.55;;
55589;SDS011;41452;42.780;23.116;2023-05-10T00:52:40;8.45;;;5.43;;
55589;SDS011;41452;42.780;23.116;2023-05-10T00:55:07;8.32;;;5.32;;
55589;SDS011;41452;42.780;23.116;2023-05-10T00:57:34;7.75;;;4.80;;
55589;SDS011;41452;42.780;23.116;2023-05-10T00:59:59;6.47;;;4.13;;
55589;SDS011;41452;42.780;23.116;2023-05-10T01:02:27;10.45;;;5.22;;
55589;SDS011;41452;42.780;23.116;2023-05-10T01:04:52;8.45;;;5.20;;
55589;SDS011;41452;42.780;23.116;2023-05-10T01:07:17;7.03;;;5.05;;
55589;SDS011;41452;42.780;23.116;2023-05-10T01:09:43;10.35;;;5.47;;
55589;SDS011;41452;42.780;23.116;2023-05-10T01:12:08;7.65;;;4.95;;
55589;SDS011;41452;42.780;23.116;2023-05-10T01:14:34;10.18;;;5.80;;
55589;SDS011;41452;42.780;23.116;2023-05-10T01:17:01;9.45;;;6.53;;
55589;SDS011;41452;42.780;23.116;2023-05-10T01:19:29;13.73;;;6.47;;
55589;SDS011;41452;42.780;23.116;2023-05-10T01:35:01;15.13;;;8.68;;
55589;SDS011;41452;42.780;23.116;2023-05-10T01:37:33;15.43;;;8.52;;
55589;SDS011;41452;42.780;23.116;2023-05-10T01:40:08;13.55;;;8.60;;
55589;SDS011;41452;42.780;23.116;2023-05-10T01:42:37;13.13;;;8.35;;
55589;SDS011;41452;42.780;23.116;2023-05-10T01:45:09;10.85;;;7.47;;
55589;SDS011;41452;42.780;23.116;2023-05-10T01:47:43;13.10;;;7.78;;
55589;SDS011;41452;42.780;23.116;2023-05-10T01:50:18;13.07;;;8.38;;
55589;SDS011;41452;42.780;23.116;2023-05-10T01:52:50;12.07;;;8.02;;
55589;SDS011;41452;42.780;23.116;2023-05-10T01:55:20;11.98;;;7.93;;
55589;SDS011;41452;42.780;23.116;2023-05-10T01:57:48;11.05;;;7.97;;
55589;SDS011;41452;42.780;23.116;2023-05-10T02:00:17;13.57;;;7.35;;
55589;SDS011;41452;42.780;23.116;2023-05-10T02:02:45;12.95;;;8.05;;
55589;SDS011;41452;42.780;23.116;2023-05-10T02:05:12;11.10;;;7.40;;
55589;SDS011;41452;42.780;23.116;2023-05-10T02:07:39;13.52;;;8.90;;
55589;SDS011;41452;42.780;23.116;2023-05-10T02:10:06;12.75;;;7.90;;
55589;SDS011;41452;42.780;23.116;2023-05-10T02:12:43;12.20;;;7.75;;
55589;SDS011;41452;42.780;23.116;2023-05-10T02:15:11;12.60;;;7.85;;
55589;SDS011;41452;42.780;23.116;2023-05-10T02:17:40;10.05;;;7.07;;
55589;SDS011;41452;42.780;23.116;2023-05-10T02:20:07;19.20;;;7.28;;
55589;SDS011;41452;42.780;23.116;2023-05-10T02:22:34;10.18;;;6.90;;
55589;SDS011;41452;42.780;23.116;2023-05-10T02:25:02;15.45;;;7.82;;
55589;SDS011;41452;42.780;23.116;2023-05-10T02:27:28;12.32;;;7.65;;
55589;SDS011;41452;42.780;23.116;2023-05-10T02:29:55;11.63;;;7.13;;
55589;SDS011;41452;42.780;23.116;2023-05-10T02:32:22;12.98;;;8.05;;
55589;SDS011;41452;42.780;23.116;2023-05-10T02:34:50;9.23;;;6.18;;
55589;SDS011;41452;42.780;23.116;2023-05-10T02:37:18;9.50;;;6.43;;
55589;SDS011;41452;42.780;23.116;2023-05-10T02:39:46;10.45;;;6.70;;
55589;SDS011;41452;42.780;23.116;2023-05-10T02:42:21;9.05;;;5.95;;
55589;SDS011;41452;42.780;23.116;2023-05-10T02:44:50;8.20;;;5.65;;
55589;SDS011;41452;42.780;23.116;2023-05-10T02:47:24;8.98;;;5.25;;
55589;SDS011;41452;42.780;23.116;2023-05-10T02:49:49;9.27;;;5.32;;
55589;SDS011;41452;42.780;23.116;2023-05-10T02:52:16;9.30;;;6.18;;
55589;SDS011;41452;42.780;23.116;2023-05-10T02:54:49;10.05;;;6.32;;
55589;SDS011;41452;42.780;23.116;2023-05-10T02:57:17;10.38;;;5.65;;
55589;SDS011;41452;42.780;23.116;2023-05-10T02:59:51;12.88;;;7.07;;
55589;SDS011;41452;42.780;23.116;2023-05-10T03:02:16;11.35;;;7.20;;
55589;SDS011;41452;42.780;23.116;2023-05-10T03:04:42;12.80;;;6.65;;
55589;SDS011;41452;42.780;23.116;2023-05-10T03:07:07;11.40;;;6.63;;
55589;SDS011;41452;42.780;23.116;2023-05-10T03:09:33;9.43;;;6.55;;
55589;SDS011;41452;42.780;23.116;2023-05-10T03:19:58;9.57;;;5.57;;
55589;SDS011;41452;42.780;23.116;2023-05-10T03:22:34;8.88;;;5.93;;
55589;SDS011;41452;42.780;23.116;2023-05-10T03:25:04;10.45;;;5.80;;
55589;SDS011;41452;42.780;23.116;2023-05-10T03:27:31;9.40;;;6.03;;
55589;SDS011;41452;42.780;23.116;2023-05-10T03:29:57;7.53;;;4.90;;
55589;SDS011;41452;42.780;23.116;2023-05-10T03:32:23;6.50;;;4.18;;
55589;SDS011;41452;42.780;23.116;2023-05-10T03:34:48;7.35;;;4.95;;
55589;SDS011;41452;42.780;23.116;2023-05-10T03:37:13;8.30;;;4.80;;
55589;SDS011;41452;42.780;23.116;2023-05-10T03:39:39;9.00;;;4.85;;
55589;SDS011;41452;42.780;23.116;2023-05-10T03:42:04;8.93;;;5.05;;
55589;SDS011;41452;42.780;23.116;2023-05-10T03:44:30;11.40;;;5.70;;
55589;SDS011;41452;42.780;23.116;2023-05-10T03:46:56;12.63;;;6.35;;
55589;SDS011;41452;42.780;23.116;2023-05-10T03:49:22;11.27;;;5.50;;
55589;SDS011;41452;42.780;23.116;2023-05-10T03:51:47;9.98;;;5.82;;
55589;SDS011;41452;42.780;23.116;2023-05-10T03:54:12;9.15;;;5.97;;
55589;SDS011;41452;42.780;23.116;2023-05-10T03:56:38;10.57;;;5.20;;
55589;SDS011;41452;42.780;23.116;2023-05-10T03:59:03;8.00;;;5.40;;
55589;SDS011;41452;42.780;23.116;2023-05-10T04:01:32;13.15;;;5.85;;
55589;SDS011;41452;42.780;23.116;2023-05-10T04:03:58;8.18;;;5.18;;
55589;SDS011;41452;42.780;23.116;2023-05-10T04:06:23;9.10;;;4.38;;
55589;SDS011;41452;42.780;23.116;2023-05-10T04:08:49;7.15;;;4.82;;
55589;SDS011;41452;42.780;23.116;2023-05-10T04:11:14;11.70;;;5.30;;
55589;SDS011;41452;42.780;23.116;2023-05-10T04:13:40;7.10;;;4.63;;
55589;SDS011;41452;42.780;23.116;2023-05-10T04:16:05;10.27;;;5.25;;
55589;SDS011;41452;42.780;23.116;2023-05-10T04:18:31;17.75;;;5.82;;
55589;SDS011;41452;42.780;23.116;2023-05-10T04:20:56;12.80;;;5.97;;
55589;SDS011;41452;42.780;23.116;2023-05-10T04:23:22;8.38;;;5.35;;
55589;SDS011;41452;42.780;23.116;2023-05-10T04:25:47;6.82;;;5.05;;
55589;SDS011;41452;42.780;23.116;2023-05-10T04:28:12;9.43;;;5.68;;
55589;SDS011;41452;42.780;23.116;2023-05-10T04:30:38;9.15;;;5.13;;
55589;SDS011;41452;42.780;23.116;2023-05-10T04:33:03;9.13;;;5.53;;
55589;SDS011;41452;42.780;23.116;2023-05-10T04:35:29;7.13;;;4.88;;
55589;SDS011;41452;42.780;23.116;2023-05-10T04:37:54;8.40;;;4.50;;
55589;SDS011;41452;42.780;23.116;2023-05-10T04:40:20;11.32;;;5.22;;
55589;SDS011;41452;42.780;23.116;2023-05-10T04:42:45;11.90;;;5.55;;
55589;SDS011;41452;42.780;23.116;2023-05-10T04:45:11;8.32;;;5.10;;
55589;SDS011;41452;42.780;23.116;2023-05-10T04:47:37;8.50;;;4.95;;
55589;SDS011;41452;42.780;23.116;2023-05-10T04:50:03;7.78;;;4.50;;
55589;SDS011;41452;42.780;23.116;2023-05-10T04:52:29;8.63;;;4.97;;
55589;SDS011;41452;42.780;23.116;2023-05-10T04:54:54;7.82;;;5.13;;
55589;SDS011;41452;42.780;23.116;2023-05-10T04:57:20;9.68;;;5.70;;
55589;SDS011;41452;42.780;23.116;2023-05-10T04:59:45;8.15;;;4.88;;
55589;SDS011;41452;42.780;23.116;2023-05-10T05:02:10;9.82;;;4.88;;
55589;SDS011;41452;42.780;23.116;2023-05-10T05:04:36;8.15;;;4.72;;
55589;SDS011;41452;42.780;23.116;2023-05-10T05:07:01;8.68;;;4.72;;
55589;SDS011;41452;42.780;23.116;2023-05-10T05:09:27;12.55;;;5.20;;
55589;SDS011;41452;42.780;23.116;2023-05-10T05:11:52;10.52;;;5.63;;
55589;SDS011;41452;42.780;23.116;2023-05-10T05:14:17;13.52;;;5.45;;
55589;SDS011;41452;42.780;23.116;2023-05-10T05:16:43;8.90;;;4.95;;
55589;SDS011;41452;42.780;23.116;2023-05-10T05:19:08;6.60;;;3.88;;
55589;SDS011;41452;42.780;23.116;2023-05-10T05:21:33;8.50;;;5.00;;
55589;SDS011;41452;42.780;23.116;2023-05-10T05:23:59;10.90;;;5.80;;
55589;SDS011;41452;42.780;23.116;2023-05-10T05:26:25;9.60;;;5.82;;
55589;SDS011;41452;42.780;23.116;2023-05-10T05:28:51;10.25;;;5.70;;
55589;SDS011;41452;42.780;23.116;2023-05-10T05:31:19;10.13;;;5.43;;
55589;SDS011;41452;42.780;23.116;2023-05-10T05:33:45;9.93;;;6.00;;
55589;SDS011;41452;42.780;23.116;2023-05-10T05:36:10;12.02;;;5.88;;
55589;SDS011;41452;42.780;23.116;2023-05-10T05:38:36;11.07;;;6.32;;
55589;SDS011;41452;42.780;23.116;2023-05-10T05:41:01;10.55;;;5.82;;
55589;SDS011;41452;42.780;23.116;2023-05-10T05:43:27;9.45;;;6.07;;
55589;SDS011;41452;42.780;23.116;2023-05-10T05:45:52;8.95;;;6.10;;
55589;SDS011;41452;42.780;23.116;2023-05-10T05:48:18;11.13;;;6.88;;
55589;SDS011;41452;42.780;23.116;2023-05-10T05:50:44;12.10;;;6.32;;
55589;SDS011;41452;42.780;23.116;2023-05-10T05:53:10;12.48;;;6.90;;
55589;SDS011;41452;42.780;23.116;2023-05-10T05:55:36;11.75;;;6.72;;
55589;SDS011;41452;42.780;23.116;2023-05-10T05:58:01;11.63;;;6.35;;
55589;SDS011;41452;42.780;23.116;2023-05-10T06:00:26;13.32;;;6.57;;
55589;SDS011;41452;42.780;23.116;2023-05-10T06:02:52;12.70;;;6.90;;
55589;SDS011;41452;42.780;23.116;2023-05-10T06:05:17;11.70;;;6.35;;
55589;SDS011;41452;42.780;23.116;2023-05-10T06:07:43;11.13;;;6.88;;
55589;SDS011;41452;42.780;23.116;2023-05-10T06:10:08;14.20;;;6.38;;
55589;SDS011;41452;42.780;23.116;2023-05-10T06:12:34;11.40;;;6.55;;
55589;SDS011;41452;42.780;23.116;2023-05-10T06:15:00;10.52;;;6.63;;
55589;SDS011;41452;42.780;23.116;2023-05-10T06:17:25;16.67;;;6.80;;
55589;SDS011;41452;42.780;23.116;2023-05-10T06:19:51;13.00;;;7.03;;
55589;SDS011;41452;42.780;23.116;2023-05-10T06:22:16;11.65;;;6.07;;
55589;SDS011;41452;42.780;23.116;2023-05-10T06:24:42;10.25;;;6.30;;
55589;SDS011;41452;42.780;23.116;2023-05-10T06:27:08;12.68;;;6.45;;
55589;SDS011;41452;42.780;23.116;2023-05-10T06:29:33;9.55;;;5.95;;
55589;SDS011;41452;42.780;23.116;2023-05-10T06:31:59;12.55;;;6.28;;
55589;SDS011;41452;42.780;23.116;2023-05-10T06:34:24;9.20;;;5.88;;
55589;SDS011;41452;42.780;23.116;2023-05-10T06:36:50;10.50;;;6.30;;
55589;SDS011;41452;42.780;23.116;2023-05-10T06:39:16;10.50;;;6.35;;
55589;SDS011;41452;42.780;23.116;2023-05-10T06:41:42;10.13;;;5.90;;
55589;SDS011;41452;42.780;23.116;2023-05-10T06:44:07;12.18;;;6.55;;
55589;SDS011;41452;42.780;23.116;2023-05-10T06:46:33;9.10;;;6.00;;
55589;SDS011;41452;42.780;23.116;2023-05-10T06:48:58;11.40;;;6.47;;
55589;SDS011;41452;42.780;23.116;2023-05-10T06:51:24;15.85;;;6.78;;
55589;SDS011;41452;42.780;23.116;2023-05-10T06:53:49;10.82;;;5.10;;
55589;SDS011;41452;42.780;23.116;2023-05-10T06:56:14;16.08;;;6.32;;
55589;SDS011;41452;42.780;23.116;2023-05-10T06:58:41;9.60;;;5.88;;
55589;SDS011;41452;42.780;23.116;2023-05-10T07:01:06;11.40;;;5.70;;
55589;SDS011;41452;42.780;23.116;2023-05-10T07:03:32;12.55;;;6.07;;
55589;SDS011;41452;42.780;23.116;2023-05-10T07:06:01;9.88;;;5.47;;
55589;SDS011;41452;42.780;23.116;2023-05-10T07:08:28;15.20;;;6.82;;
55589;SDS011;41452;42.780;23.116;2023-05-10T07:10:59;11.35;;;5.75;;
55589;SDS011;41452;42.780;23.116;2023-05-10T07:13:28;10.60;;;5.80;;
55589;SDS011;41452;42.780;23.116;2023-05-10T07:15:55;11.70;;;6.00;;
55589;SDS011;41452;42.780;23.116;2023-05-10T07:18:20;11.73;;;6.45;;
55589;SDS011;41452;42.780;23.116;2023-05-10T07:20:45;12.93;;;6.20;;
55589;SDS011;41452;42.780;23.116;2023-05-10T07:23:11;12.65;;;6.32;;
55589;SDS011;41452;42.780;23.116;2023-05-10T07:25:36;8.98;;;5.75;;
55589;SDS011;41452;42.780;23.116;2023-05-10T07:28:02;13.48;;;6.68;;
55589;SDS011;41452;42.780;23.116;2023-05-10T07:30:28;11.90;;;6.45;;
55589;SDS011;41452;42.780;23.116;2023-05-10T07:32:53;11.73;;;6.90;;
55589;SDS011;41452;42.780;23.116;2023-05-10T07:35:18;11.32;;;6.78;;
55589;SDS011;41452;42.780;23.116;2023-05-10T07:37:44;15.32;;;6.32;;
55589;SDS011;41452;42.780;23.116;2023-05-10T07:40:09;10.38;;;6.05;;
55589;SDS011;41452;42.780;23.116;2023-05-10T07:42:35;11.73;;;6.80;;
55589;SDS011;41452;42.780;23.116;2023-05-10T07:45:00;8.80;;;5.80;;
55589;SDS011;41452;42.780;23.116;2023-05-10T07:47:26;13.00;;;7.28;;
55589;SDS011;41452;42.780;23.116;2023-05-10T07:49:51;10.50;;;6.05;;
55589;SDS011;41452;42.780;23.116;2023-05-10T07:52:17;11.65;;;7.32;;
55589;SDS011;41452;42.780;23.116;2023-05-10T07:54:42;11.88;;;7.72;;
55589;SDS011;41452;42.780;23.116;2023-05-10T07:57:07;16.08;;;7.35;;
55589;SDS011;41452;42.780;23.116;2023-05-10T07:59:33;12.95;;;7.22;;
55589;SDS011;41452;42.780;23.116;2023-05-10T08:01:58;11.48;;;6.65;;
55589;SDS011;41452;42.780;23.116;2023-05-10T08:04:24;13.32;;;7.32;;
55589;SDS011;41452;42.780;23.116;2023-05-10T08:06:49;10.02;;;6.90;;
55589;SDS011;41452;42.780;23.116;2023-05-10T08:09:15;11.88;;;6.53;;
55589;SDS011;41452;42.780;23.116;2023-05-10T08:11:41;13.00;;;6.93;;
55589;SDS011;41452;42.780;23.116;2023-05-10T08:14:06;10.80;;;6.50;;
55589;SDS011;41452;42.780;23.116;2023-05-10T08:16:31;12.00;;;7.95;;
55589;SDS011;41452;42.780;23.116;2023-05-10T08:18:57;12.43;;;7.75;;
55589;SDS011;41452;42.780;23.116;2023-05-10T08:21:22;12.63;;;7.85;;
55589;SDS011;41452;42.780;23.116;2023-05-10T08:23:48;16.10;;;8.48;;
55589;SDS011;41452;42.780;23.116;2023-05-10T08:26:13;14.35;;;8.45;;
55589;SDS011;41452;42.780;23.116;2023-05-10T08:28:39;14.02;;;7.57;;
55589;SDS011;41452;42.780;23.116;2023-05-10T08:31:05;15.23;;;9.20;;
55589;SDS011;41452;42.780;23.116;2023-05-10T08:33:30;14.70;;;8.57;;
55589;SDS011;41452;42.780;23.116;2023-05-10T08:35:55;12.20;;;7.95;;
55589;SDS011;41452;42.780;23.116;2023-05-10T08:38:21;10.80;;;7.32;;
55589;SDS011;41452;42.780;23.116;2023-05-10T08:40:46;12.80;;;8.10;;
55589;SDS011;41452;42.780;23.116;2023-05-10T08:43:15;15.90;;;7.43;;
55589;SDS011;41452;42.780;23.116;2023-05-10T08:45:42;10.20;;;6.88;;
55589;SDS011;41452;42.780;23.116;2023-05-10T08:48:10;12.50;;;8.10;;
55589;SDS011;41452;42.780;23.116;2023-05-10T08:50:37;14.45;;;7.72;;
55589;SDS011;41452;42.780;23.116;2023-05-10T08:53:11;12.68;;;6.88;;
55589;SDS011;41452;42.780;23.116;2023-05-10T08:55:38;13.20;;;7.35;;
55589;SDS011;41452;42.780;23.116;2023-05-10T08:58:05;11.48;;;7.18;;
55589;SDS011;41452;42.780;23.116;2023-05-10T09:00:31;15.57;;;8.23;;
55589;SDS011;41452;42.780;23.116;2023-05-10T09:02:59;10.70;;;6.90;;
55589;SDS011;41452;42.780;23.116;2023-05-10T09:05:26;11.82;;;7.32;;
55589;SDS011;41452;42.780;23.116;2023-05-10T09:07:52;11.07;;;7.63;;
55589;SDS011;41452;42.780;23.116;2023-05-10T09:10:18;14.57;;;8.05;;
55589;SDS011;41452;42.780;23.116;2023-05-10T09:12:45;11.95;;;7.10;;
55589;SDS011;41452;42.780;23.116;2023-05-10T09:15:10;17.02;;;8.57;;
55589;SDS011;41452;42.780;23.116;2023-05-10T09:17:38;14.50;;;7.70;;
55589;SDS011;41452;42.780;23.116;2023-05-10T09:20:05;10.73;;;6.28;;
55589;SDS011;41452;42.780;23.116;2023-05-10T09:22:31;10.15;;;6.70;;
55589;SDS011;41452;42.780;23.116;2023-05-10T09:25:09;10.63;;;6.80;;
55589;SDS011;41452;42.780;23.116;2023-05-10T09:27:36;14.02;;;6.50;;
55589;SDS011;41452;42.780;23.116;2023-05-10T09:30:03;8.40;;;5.70;;
55589;SDS011;41452;42.780;23.116;2023-05-10T09:32:36;11.40;;;7.10;;
55589;SDS011;41452;42.780;23.116;2023-05-10T09:37:41;11.60;;;5.82;;
55589;SDS011;41452;42.780;23.116;2023-05-10T09:40:45;11.70;;;6.57;;
55589;SDS011;41452;42.780;23.116;2023-05-10T09:43:06;9.93;;;6.65;;
55589;SDS011;41452;42.780;23.116;2023-05-10T09:45:33;15.02;;;6.47;;
55589;SDS011;41452;42.780;23.116;2023-05-10T09:48:00;9.57;;;6.15;;
55589;SDS011;41452;42.780;23.116;2023-05-10T09:50:27;12.15;;;7.10;;
55589;SDS011;41452;42.780;23.116;2023-05-10T09:55:20;12.50;;;7.07;;
55589;SDS011;41452;42.780;23.116;2023-05-10T09:57:47;13.82;;;8.70;;
55589;SDS011;41452;42.780;23.116;2023-05-10T10:00:17;10.52;;;6.60;;
55589;SDS011;41452;42.780;23.116;2023-05-10T10:02:44;11.07;;;6.88;;
55589;SDS011;41452;42.780;23.116;2023-05-10T10:05:11;17.60;;;7.55;;
55589;SDS011;41452;42.780;23.116;2023-05-10T10:07:36;12.55;;;7.80;;
55589;SDS011;41452;42.780;23.116;2023-05-10T10:10:02;11.70;;;7.05;;
55589;SDS011;41452;42.780;23.116;2023-05-10T10:12:29;14.10;;;8.00;;
55589;SDS011;41452;42.780;23.116;2023-05-10T10:14:55;10.73;;;7.70;;
55589;SDS011;41452;42.780;23.116;2023-05-10T10:17:21;10.68;;;6.20;;
55589;SDS011;41452;42.780;23.116;2023-05-10T10:19:46;14.20;;;8.00;;
55589;SDS011;41452;42.780;23.116;2023-05-10T10:22:13;13.02;;;7.80;;
55589;SDS011;41452;42.780;23.116;2023-05-10T10:24:38;11.90;;;8.10;;
55589;SDS011;41452;42.780;23.116;2023-05-10T10:27:21;14.05;;;8.27;;
55589;SDS011;41452;42.780;23.116;2023-05-10T10:32:19;10.20;;;7.20;;
55589;SDS011;41452;42.780;23.116;2023-05-10T10:35:05;12.82;;;7.22;;
55589;SDS011;41452;42.780;23.116;2023-05-10T10:37:43;11.35;;;7.05;;
55589;SDS011;41452;42.780;23.116;2023-05-10T10:43:24;9.70;;;6.63;;
55589;SDS011;41452;42.780;23.116;2023-05-10T10:48:47;13.23;;;8.18;;
55589;SDS011;41452;42.780;23.116;2023-05-10T10:51:13;12.68;;;7.75;;
55589;SDS011;41452;42.780;23.116;2023-05-10T10:53:39;13.60;;;7.78;;
55589;SDS011;41452;42.780;23.116;2023-05-10T10:56:06;8.88;;;6.68;;
55589;SDS011;41452;42.780;23.116;2023-05-10T10:58:36;11.80;;;6.90;;
55589;SDS011;41452;42.780;23.116;2023-05-10T11:01:13;9.77;;;7.15;;
55589;SDS011;41452;42.780;23.116;2023-05-10T11:03:39;12.02;;;7.15;;
55589;SDS011;41452;42.780;23.116;2023-05-10T11:06:05;15.50;;;6.90;;
55589;SDS011;41452;42.780;23.116;2023-05-10T11:08:31;12.40;;;6.88;;
55589;SDS011;41452;42.780;23.116;2023-05-10T11:13:29;9.27;;;5.65;;
55589;SDS011;41452;42.780;23.116;2023-05-10T11:16:15;12.70;;;6.25;;
55589;SDS011;41452;42.780;23.116;2023-05-10T11:21:32;11.13;;;6.03;;
55589;SDS011;41452;42.780;23.116;2023-05-10T11:23:59;10.60;;;5.97;;
55589;SDS011;41452;42.780;23.116;2023-05-10T11:26:34;11.60;;;6.32;;
55589;SDS011;41452;42.780;23.116;2023-05-10T11:29:00;7.60;;;5.18;;
55589;SDS011;41452;42.780;23.116;2023-05-10T11:31:27;9.35;;;6.10;;
55589;SDS011;41452;42.780;23.116;2023-05-10T11:33:54;10.38;;;5.63;;
55589;SDS011;41452;42.780;23.116;2023-05-10T11:36:23;13.95;;;5.63;;
55589;SDS011;41452;42.780;23.116;2023-05-10T11:38:48;8.57;;;5.68;;
55589;SDS011;41452;42.780;23.116;2023-05-10T11:41:15;8.68;;;5.63;;
55589;SDS011;41452;42.780;23.116;2023-05-10T11:43:42;7.90;;;5.50;;
55589;SDS011;41452;42.780;23.116;2023-05-10T11:46:07;12.88;;;5.55;;
55589;SDS011;41452;42.780;23.116;2023-05-10T11:48:35;16.98;;;6.03;;
55589;SDS011;41452;42.780;23.116;2023-05-10T11:51:01;10.73;;;5.93;;
55589;SDS011;41452;42.780;23.116;2023-05-10T11:53:31;8.63;;;5.07;;
55589;SDS011;41452;42.780;23.116;2023-05-10T11:56:04;12.85;;;5.32;;
55589;SDS011;41452;42.780;23.116;2023-05-10T11:58:31;7.80;;;5.15;;
55589;SDS011;41452;42.780;23.116;2023-05-10T12:00:58;6.93;;;4.28;;
55589;SDS011;41452;42.780;23.116;2023-05-10T12:03:24;9.57;;;5.55;;
55589;SDS011;41452;42.780;23.116;2023-05-10T12:05:49;5.68;;;4.05;;
55589;SDS011;41452;42.780;23.116;2023-05-10T12:08:15;8.07;;;5.15;;
55589;SDS011;41452;42.780;23.116;2023-05-10T12:10:46;7.85;;;5.15;;
55589;SDS011;41452;42.780;23.116;2023-05-10T12:13:12;7.28;;;5.35;;
55589;SDS011;41452;42.780;23.116;2023-05-10T12:15:39;9.50;;;5.25;;
55589;SDS011;41452;42.780;23.116;2023-05-10T12:18:04;10.00;;;5.50;;
55589;SDS011;41452;42.780;23.116;2023-05-10T12:20:30;11.20;;;5.38;;
55589;SDS011;41452;42.780;23.116;2023-05-10T12:22:56;10.98;;;5.68;;
55589;SDS011;41452;42.780;23.116;2023-05-10T12:25:24;9.90;;;5.65;;
55589;SDS011;41452;42.780;23.116;2023-05-10T12:27:55;10.02;;;5.78;;
55589;SDS011;41452;42.780;23.116;2023-05-10T12:30:24;8.30;;;5.32;;
55589;SDS011;41452;42.780;23.116;2023-05-10T12:32:52;7.30;;;5.30;;
55589;SDS011;41452;42.780;23.116;2023-05-10T12:35:17;7.80;;;5.88;;
55589;SDS011;41452;42.780;23.116;2023-05-10T12:37:47;8.90;;;5.28;;
55589;SDS011;41452;42.780;23.116;2023-05-10T12:40:13;8.25;;;5.63;;
55589;SDS011;41452;42.780;23.116;2023-05-10T12:42:38;9.40;;;5.32;;
55589;SDS011;41452;42.780;23.116;2023-05-10T12:45:05;9.07;;;5.38;;
55589;SDS011;41452;42.780;23.116;2023-05-10T12:47:31;7.93;;;5.25;;
55589;SDS011;41452;42.780;23.116;2023-05-10T12:49:57;9.52;;;6.20;;
55589;SDS011;41452;42.780;23.116;2023-05-10T12:52:22;12.13;;;6.32;;
55589;SDS011;41452;42.780;23.116;2023-05-10T12:54:48;15.75;;;6.60;;
55589;SDS011;41452;42.780;23.116;2023-05-10T12:57:14;9.90;;;6.10;;
55589;SDS011;41452;42.780;23.116;2023-05-10T12:59:39;8.20;;;5.78;;
55589;SDS011;41452;42.780;23.116;2023-05-10T13:02:05;8.65;;;5.78;;
55589;SDS011;41452;42.780;23.116;2023-05-10T13:04:31;9.88;;;5.93;;
55589;SDS011;41452;42.780;23.116;2023-05-10T13:06:57;10.00;;;5.55;;
55589;SDS011;41452;42.780;23.116;2023-05-10T13:09:26;11.25;;;6.45;;
55589;SDS011;41452;42.780;23.116;2023-05-10T13:11:54;11.95;;;5.43;;
55589;SDS011;41452;42.780;23.116;2023-05-10T13:14:19;12.70;;;5.72;;
55589;SDS011;41452;42.780;23.116;2023-05-10T13:16:48;10.40;;;6.15;;
55589;SDS011;41452;42.780;23.116;2023-05-10T13:19:13;7.50;;;5.20;;
55589;SDS011;41452;42.780;23.116;2023-05-10T13:21:39;8.52;;;5.50;;
55589;SDS011;41452;42.780;23.116;2023-05-10T13:24:09;12.30;;;6.00;;
55589;SDS011;41452;42.780;23.116;2023-05-10T13:26:35;13.18;;;5.82;;
55589;SDS011;41452;42.780;23.116;2023-05-10T13:29:01;9.07;;;6.18;;
55589;SDS011;41452;42.780;23.116;2023-05-10T13:31:27;11.50;;;5.93;;
55589;SDS011;41452;42.780;23.116;2023-05-10T13:33:53;8.25;;;4.63;;
55589;SDS011;41452;42.780;23.116;2023-05-10T13:36:18;9.23;;;5.65;;
55589;SDS011;41452;42.780;23.116;2023-05-10T13:38:43;14.13;;;5.88;;
55589;SDS011;41452;42.780;23.116;2023-05-10T13:41:09;10.57;;;6.13;;
55589;SDS011;41452;42.780;23.116;2023-05-10T13:43:35;9.63;;;6.47;;
55589;SDS011;41452;42.780;23.116;2023-05-10T13:46:01;15.73;;;6.32;;
55589;SDS011;41452;42.780;23.116;2023-05-10T13:48:26;11.10;;;5.78;;
55589;SDS011;41452;42.780;23.116;2023-05-10T13:50:52;11.02;;;6.10;;
55589;SDS011;41452;42.780;23.116;2023-05-10T13:53:17;8.77;;;5.10;;
55589;SDS011;41452;42.780;23.116;2023-05-10T13:59:03;8.75;;;5.45;;
55589;SDS011;41452;42.780;23.116;2023-05-10T14:01:29;11.68;;;6.10;;
55589;SDS011;41452;42.780;23.116;2023-05-10T14:03:54;11.48;;;6.03;;
55589;SDS011;41452;42.780;23.116;2023-05-10T14:06:20;12.73;;;5.90;;
55589;SDS011;41452;42.780;23.116;2023-05-10T14:08:46;9.45;;;6.40;;
55589;SDS011;41452;42.780;23.116;2023-05-10T14:11:12;11.43;;;6.30;;
55589;SDS011;41452;42.780;23.116;2023-05-10T14:13:37;12.30;;;7.05;;
55589;SDS011;41452;42.780;23.116;2023-05-10T14:16:03;9.25;;;6.15;;
55589;SDS011;41452;42.780;23.116;2023-05-10T14:18:29;8.88;;;5.95;;
55589;SDS011;41452;42.780;23.116;2023-05-10T14:20:54;10.32;;;6.10;;
55589;SDS011;41452;42.780;23.116;2023-05-10T14:23:21;8.80;;;5.35;;
55589;SDS011;41452;42.780;23.116;2023-05-10T14:25:49;8.55;;;5.40;;
55589;SDS011;41452;42.780;23.116;2023-05-10T14:28:15;8.68;;;5.55;;
55589;SDS011;41452;42.780;23.116;2023-05-10T14:30:42;9.98;;;5.38;;
55589;SDS011;41452;42.780;23.116;2023-05-10T14:33:07;11.43;;;5.57;;
55589;SDS011;41452;42.780;23.116;2023-05-10T14:35:33;9.75;;;5.80;;
55589;SDS011;41452;42.780;23.116;2023-05-10T14:37:59;10.18;;;5.28;;
55589;SDS011;41452;42.780;23.116;2023-05-10T14:40:24;8.27;;;5.50;;
55589;SDS011;41452;42.780;23.116;2023-05-10T14:42:50;8.63;;;5.38;;
55589;SDS011;41452;42.780;23.116;2023-05-10T14:45:15;9.07;;;5.75;;
55589;SDS011;41452;42.780;23.116;2023-05-10T14:47:41;9.00;;;6.25;;
55589;SDS011;41452;42.780;23.116;2023-05-10T14:50:06;10.27;;;5.90;;
55589;SDS011;41452;42.780;23.116;2023-05-10T14:55:54;10.55;;;5.65;;
55589;SDS011;41452;42.780;23.116;2023-05-10T14:58:19;12.25;;;5.90;;
55589;SDS011;41452;42.780;23.116;2023-05-10T15:00:44;8.35;;;5.55;;
55589;SDS011;41452;42.780;23.116;2023-05-10T15:03:11;9.90;;;5.80;;
55589;SDS011;41452;42.780;23.116;2023-05-10T15:05:36;13.90;;;6.28;;
55589;SDS011;41452;42.780;23.116;2023-05-10T15:08:02;10.75;;;7.32;;
55589;SDS011;41452;42.780;23.116;2023-05-10T15:10:29;11.27;;;6.25;;